• Join FlightAware (Why Join?)
  • Login
  • US Flag 
06:21PM EDT


 

Airport Tracker/Info


-or-


 

Live Flight TrackerFlight Track Log ✈ GGA1 ✈ 21-May-2013 ✈ KCPK - KJQF

Flight Track Log - Related Links

Times and Time Zones

All times are in EDT time to prevent confusion due to time zone crossing. See the GGA1 flight status page for this flight to view local times or setup timezone preferences in your user account.

Time Position Orientation Groundspeed Altitude Reporting Facility
EDT Latitude Longitude Course Direction KTS MPH feet Rate Location/Type
10:10AM 36.6481 -76.3633 249° West 152 175 1,200  Level Washington Center
10:11AM 36.6417 -76.3842 249° West 172 198 1,200 1,080 Level Washington Center
10:12AM 36.6203 -76.4408 245° Southwest 186 214 2,700 1,440 Climbing Washington Center
10:12AM 36.6222 -76.4822 273° West 183 211 3,800 1,740 Climbing Washington Center
10:13AM 36.6242 -76.5056 276° West 173 199 4,500 2,160 Climbing Washington Center
10:14AM 36.6300 -76.5392 282° West 168 193 6,000 2,340 Climbing Washington Center
10:14AM 36.6319 -76.5600 277° West 154 177 6,900 2,160 Climbing Washington Center
10:14AM 36.6358 -76.5911 279° West 153 176 8,100 1,800 Climbing Washington Center
10:15AM 36.6397 -76.6481 275° West 158 182 10,000 1,860 Climbing Washington Center
10:17AM 36.6453 -76.7078 277° West 168 193 11,900 1,860 Climbing Washington Center
10:17AM 36.6572 -76.7647 285° West 173 199 13,800 1,860 Climbing Washington Center
10:18AM 36.6714 -76.8297 285° West 178 205 15,600 1,080 Climbing Washington Center
10:20AM 36.6872 -76.9025 285° West 191 220 16,000 1,020 Climbing Washington Center
10:21AM 36.7092 -76.9781 290° West 220 253 17,800 1,560 Climbing Washington Center
10:21AM 36.7086 -77.0453 269° West 220 253 19,100 1,080 Climbing Washington Center
10:22AM 36.6744 -77.1069 235° Southwest 201 231 20,000 420 Climbing Washington Center
10:23AM 36.6442 -77.1761 241° Southwest 232 267 20,000  Level Washington Center
10:24AM 36.6097 -77.2558 242° Southwest 256 295 20,000  Level Washington Center
10:26AM 36.5733 -77.3272 238° Southwest 261 300 20,000  Level Washington Center
10:26AM 36.5367 -77.4067 240° Southwest 261 300 20,000  Level Washington Center
10:27AM 36.4981 -77.4806 237° Southwest 266 306 20,000  Level Washington Center
10:28AM 36.4611 -77.5625 241° Southwest 271 312 20,000  Level Washington Center
10:30AM 36.4200 -77.6544 241° Southwest 271 312 20,000  Level Washington Center
10:31AM 36.3856 -77.7206 237° Southwest 271 312 20,000  Level Washington Center
10:31AM 36.3486 -77.8019 241° Southwest 271 312 20,000  Level Washington Center
10:32AM 36.3117 -77.8808 240° Southwest 271 312 20,000  Level Washington Center
10:33AM 36.2725 -77.9597 238° Southwest 271 312 20,000  Level Washington Center
10:35AM 36.2353 -78.0408 240° Southwest 271 312 20,000  Level Washington Center
10:35AM 36.1983 -78.1169 239° Southwest 271 312 20,000  Level Washington Center
10:36AM 36.1611 -78.1956 240° Southwest 271 312 20,000  Level Washington Center
10:37AM 36.1197 -78.2764 238° Southwest 271 312 20,000  Level Washington Center
10:38AM 36.0781 -78.3650 240° Southwest 271 312 20,000  Level Washington Center
10:39AM 36.0408 -78.4433 240° Southwest 271 312 20,000  Level Washington Center
10:40AM 36.0014 -78.5214 238° Southwest 271 312 20,000  Level Washington Center
10:41AM 35.9639 -78.6022 240° Southwest 271 312 20,000  Level Washington Center
10:43AM 35.9242 -78.6828 239° Southwest 271 312 20,000 -300 Level Washington Center
10:44AM 35.8825 -78.7606 237° Southwest 271 312 19,500 -780 Descending Washington Center
10:45AM 35.8611 -78.8547 254° West 276 318 18,500 -1,020 Descending Washington Center
10:45AM 35.8625 -78.9572 271° West 281 323 17,600 -1,020 Descending Washington Center
10:46AM 35.8533 -79.0567 264° West 296 341 16,500 -1,080 Descending Washington Center
10:48AM 35.8455 -79.1416 264° West  Level FlightAware Approximate
10:50AM 35.8319 -79.3581 245° Southwest 289 333 13,300  Level Washington Center
10:52AM 35.7841 -79.5065 245° Southwest  Level Estimated
10:55AM 35.7594 -79.7054 245° Southwest  Level FlightAware Approximate
10:58AM 35.6300 -80.0989 238° Southwest 273 314 6,000  Level Atlanta Center
10:59AM 35.6094 -80.0426 248° West  Level Estimated
11:00AM 35.5887 -80.1210 252° West  Level FlightAware Approximate
11:01AM 35.5629 -80.1971 270° West  Level Estimated
11:02AM 35.5371 -80.2731 244° Southwest  Level Estimated
11:03AM 35.5112 -80.3491 238° Southwest  Level Estimated